Terminal Aerodrome Forecast
Issued by NWS

Home | Current Version | Previous Version | Graphics & Text | Print | Product List | Glossary On
Versions: 1 2 3 4 5 6 7 8 9 10 11 12 13 14 15 16 17 18 19 20 21 22 23 24 25 26 27 28 29 30 31 32 33 34 35 36
000
FTUS43 KLOT 041603 AAB
TAFMDW
TAF AMD
KMDW 041603Z 0416/0512 27009KT P6SM SCT018 BKN100
     FM041930 01010KT P6SM SCT020 BKN150
     FM042130 05010KT P6SM BKN035
     FM050000 05009KT P6SM SCT040 BKN150
     FM050600 06008KT 5SM -SHRA VCTS SCT040 BKN100CB PROB30
      0508/0512 3SM TSRA OVC025CB=

USA.gov is the U.S. government's official web portal to all federal, state and local government web resources and services.